EZY38MA EGGD-EGNS
Flight info
| Callsign | EZY38MA |
|---|---|
| Flight time | 0h 36m |
| Altitude | 24000 |
| Route | BCN P69 DIZIM N864 WAL M146 LUSOD DCT IOM |
| Aircraft | A320/M-SDE2E3FGHIJ1RWXY/LB1 |
Departure
| Time | 2026-05-08 16:29 |
|---|---|
| Airport | Bristol Airport (EGGD) |
Arrival
| Time | 2026-05-08 17:06 |
|---|---|
| Airport | Isle of Man Airport (EGNS) |
| Time | Latitude | Longitude | Altitude | Speed | Heading |
|---|---|---|---|---|---|
| 2026-05-08 15:58 | 51.38528 | -2.71804 | 622 ft | 0 kts | 86° |
| 2026-05-08 16:20 | 51.38528 | -2.71805 | 608 ft | 1 kts | 86° |
| 2026-05-08 16:20 | 51.38527 | -2.71833 | 621 ft | 3 kts | 86° |
| 2026-05-08 16:20 | 51.38529 | -2.71865 | 615 ft | 3 kts | 128° |
| 2026-05-08 16:20 | 51.38545 | -2.71882 | 617 ft | 3 kts | 176° |
| 2026-05-08 16:21 | 51.38556 | -2.71883 | 607 ft | 0 kts | 176° |
| 2026-05-08 16:23 | 51.38555 | -2.71883 | 607 ft | 0 kts | 176° |
| 2026-05-08 16:23 | 51.38541 | -2.71882 | 612 ft | 4 kts | 176° |
| 2026-05-08 16:23 | 51.38514 | -2.71879 | 608 ft | 5 kts | 176° |
| 2026-05-08 16:24 | 51.38472 | -2.71875 | 607 ft | 6 kts | 176° |
| 2026-05-08 16:24 | 51.38434 | -2.71913 | 610 ft | 8 kts | 257° |
| 2026-05-08 16:24 | 51.38432 | -2.72008 | 605 ft | 11 kts | 268° |
| 2026-05-08 16:24 | 51.38428 | -2.72150 | 606 ft | 13 kts | 266° |
| 2026-05-08 16:25 | 51.38423 | -2.72276 | 609 ft | 9 kts | 266° |
| 2026-05-08 16:25 | 51.38419 | -2.72377 | 611 ft | 11 kts | 266° |
| 2026-05-08 16:25 | 51.38413 | -2.72526 | 611 ft | 16 kts | 266° |
| 2026-05-08 16:25 | 51.38406 | -2.72710 | 618 ft | 17 kts | 266° |
| 2026-05-08 16:26 | 51.38398 | -2.72906 | 605 ft | 18 kts | 266° |
| 2026-05-08 16:26 | 51.38390 | -2.73115 | 606 ft | 18 kts | 266° |
| 2026-05-08 16:26 | 51.38379 | -2.73257 | 623 ft | 9 kts | 251° |
| 2026-05-08 16:26 | 51.38355 | -2.73313 | 629 ft | 5 kts | 225° |
| 2026-05-08 16:27 | 51.38328 | -2.73337 | 618 ft | 5 kts | 199° |
| 2026-05-08 16:27 | 51.38293 | -2.73342 | 618 ft | 5 kts | 177° |
| 2026-05-08 16:27 | 51.38262 | -2.73337 | 623 ft | 4 kts | 172° |
| 2026-05-08 16:27 | 51.38230 | -2.73322 | 631 ft | 5 kts | 158° |
| 2026-05-08 16:28 | 51.38215 | -2.73303 | 629 ft | 4 kts | 124° |
| 2026-05-08 16:28 | 51.38215 | -2.73273 | 627 ft | 0 kts | 87° |
| 2026-05-08 16:28 | 51.38215 | -2.73271 | 627 ft | 2 kts | 87° |
| 2026-05-08 16:29 | 51.38224 | -2.73011 | 631 ft | 60 kts | 86° |
| 2026-05-08 16:29 | 51.38267 | -2.71938 | 628 ft | 131 kts | 86° |
| 2026-05-08 16:29 | 51.38344 | -2.70233 | 926 ft | 161 kts | 89° |
| 2026-05-08 16:29 | 51.38404 | -2.68425 | 1756 ft | 162 kts | 89° |
| 2026-05-08 16:30 | 51.38456 | -2.66596 | 2340 ft | 174 kts | 91° |
| 2026-05-08 16:30 | 51.38510 | -2.64537 | 2673 ft | 196 kts | 89° |
| 2026-05-08 16:30 | 51.38574 | -2.62201 | 3070 ft | 222 kts | 90° |
| 2026-05-08 16:30 | 51.38649 | -2.59595 | 3518 ft | 247 kts | 90° |
| 2026-05-08 16:31 | 51.38861 | -2.56758 | 4137 ft | 265 kts | 72° |
| 2026-05-08 16:31 | 51.39949 | -2.54346 | 4946 ft | 277 kts | 37° |
| 2026-05-08 16:31 | 51.41693 | -2.52997 | 5814 ft | 282 kts | 13° |
| 2026-05-08 16:31 | 51.43643 | -2.52813 | 6672 ft | 284 kts | 348° |
| 2026-05-08 16:32 | 51.45470 | -2.53980 | 7491 ft | 284 kts | 322° |
| 2026-05-08 16:32 | 51.46850 | -2.56230 | 8323 ft | 284 kts | 306° |
| 2026-05-08 16:32 | 51.48095 | -2.58713 | 9203 ft | 287 kts | 306° |
| 2026-05-08 16:32 | 51.49354 | -2.61230 | 10045 ft | 291 kts | 306° |
| 2026-05-08 16:33 | 51.50655 | -2.63830 | 10468 ft | 310 kts | 307° |
| 2026-05-08 16:33 | 51.52056 | -2.66624 | 10734 ft | 331 kts | 307° |
| 2026-05-08 16:33 | 51.53518 | -2.69531 | 11321 ft | 340 kts | 307° |
| 2026-05-08 16:33 | 51.55020 | -2.72513 | 12031 ft | 345 kts | 307° |
| 2026-05-08 16:34 | 51.56540 | -2.75532 | 12766 ft | 350 kts | 307° |
| 2026-05-08 16:34 | 51.58078 | -2.78587 | 13468 ft | 354 kts | 307° |
| 2026-05-08 16:34 | 51.59636 | -2.81681 | 14176 ft | 358 kts | 307° |
| 2026-05-08 16:34 | 51.61212 | -2.84815 | 14808 ft | 362 kts | 307° |
| 2026-05-08 16:35 | 51.62781 | -2.87943 | 15439 ft | 365 kts | 307° |
| 2026-05-08 16:35 | 51.64378 | -2.91139 | 16102 ft | 368 kts | 307° |
| 2026-05-08 16:35 | 51.65991 | -2.94367 | 16745 ft | 372 kts | 307° |
| 2026-05-08 16:35 | 51.67620 | -2.97627 | 17379 ft | 375 kts | 307° |
| 2026-05-08 16:36 | 51.69263 | -3.00919 | 18013 ft | 378 kts | 307° |
| 2026-05-08 16:36 | 51.70920 | -3.04248 | 18599 ft | 382 kts | 306° |
| 2026-05-08 16:36 | 51.72583 | -3.07601 | 19144 ft | 384 kts | 306° |
| 2026-05-08 16:36 | 51.74257 | -3.10982 | 19692 ft | 386 kts | 306° |
| 2026-05-08 16:37 | 51.75939 | -3.14379 | 20241 ft | 388 kts | 306° |
| 2026-05-08 16:37 | 51.77743 | -3.17640 | 20766 ft | 393 kts | 315° |
| 2026-05-08 16:37 | 51.79936 | -3.20228 | 21258 ft | 399 kts | 328° |
| 2026-05-08 16:37 | 51.82506 | -3.21993 | 21774 ft | 405 kts | 342° |
| 2026-05-08 16:38 | 51.85305 | -3.22768 | 22271 ft | 412 kts | 355° |
| 2026-05-08 16:38 | 51.88181 | -3.22486 | 22752 ft | 417 kts | 7° |
| 2026-05-08 16:38 | 51.91057 | -3.21768 | 23215 ft | 420 kts | 7° |
| 2026-05-08 16:38 | 51.93957 | -3.21037 | 23679 ft | 423 kts | 6° |
| 2026-05-08 16:39 | 51.95928 | -3.20541 | 23922 ft | 425 kts | 6° |
| 2026-05-08 16:39 | 51.98839 | -3.19814 | 24043 ft | 434 kts | 6° |
| 2026-05-08 16:39 | 52.01868 | -3.19065 | 24069 ft | 446 kts | 6° |
| 2026-05-08 16:39 | 52.04984 | -3.18460 | 24063 ft | 456 kts | 0° |
| 2026-05-08 16:40 | 52.08196 | -3.18216 | 24062 ft | 467 kts | 0° |
| 2026-05-08 16:40 | 52.11474 | -3.17974 | 24064 ft | 477 kts | 0° |
| 2026-05-08 16:40 | 52.14834 | -3.17725 | 24059 ft | 486 kts | 0° |
| 2026-05-08 16:40 | 52.18241 | -3.17467 | 24064 ft | 494 kts | 0° |
| 2026-05-08 16:41 | 52.21691 | -3.17199 | 24062 ft | 498 kts | 0° |
| 2026-05-08 16:41 | 52.25153 | -3.16928 | 24078 ft | 499 kts | 0° |
| 2026-05-08 16:41 | 52.28636 | -3.16654 | 24063 ft | 500 kts | 0° |
| 2026-05-08 16:42 | 52.35582 | -3.16111 | 24074 ft | 500 kts | 0° |
| 2026-05-08 16:42 | 52.39073 | -3.15837 | 24073 ft | 500 kts | 0° |
| 2026-05-08 16:42 | 52.42541 | -3.15565 | 24073 ft | 500 kts | 0° |
| 2026-05-08 16:42 | 52.46016 | -3.15294 | 24073 ft | 500 kts | 0° |
| 2026-05-08 16:43 | 52.49488 | -3.15022 | 24085 ft | 500 kts | 0° |
| 2026-05-08 16:43 | 52.52971 | -3.14750 | 24079 ft | 500 kts | 0° |
| 2026-05-08 16:43 | 52.56437 | -3.14478 | 24076 ft | 499 kts | 0° |
| 2026-05-08 16:43 | 52.59871 | -3.14209 | 24074 ft | 500 kts | 0° |
| 2026-05-08 16:44 | 52.63352 | -3.13936 | 24075 ft | 500 kts | 0° |
| 2026-05-08 16:44 | 52.66826 | -3.13665 | 24074 ft | 500 kts | 0° |
| 2026-05-08 16:44 | 52.70297 | -3.13402 | 24072 ft | 500 kts | 359° |
| 2026-05-08 16:44 | 52.73746 | -3.13722 | 24071 ft | 496 kts | 349° |
| 2026-05-08 16:45 | 52.77166 | -3.14520 | 24076 ft | 496 kts | 349° |
| 2026-05-08 16:45 | 52.80589 | -3.15329 | 24078 ft | 496 kts | 349° |
| 2026-05-08 16:45 | 52.84001 | -3.16138 | 24078 ft | 496 kts | 349° |
| 2026-05-08 16:45 | 52.87422 | -3.16952 | 24081 ft | 496 kts | 349° |
| 2026-05-08 16:46 | 52.90877 | -3.17278 | 24075 ft | 500 kts | 359° |
| 2026-05-08 16:46 | 52.94351 | -3.17017 | 24088 ft | 500 kts | 0° |
| 2026-05-08 16:46 | 52.97828 | -3.16743 | 24114 ft | 499 kts | 0° |
| 2026-05-08 16:46 | 53.01294 | -3.16469 | 24114 ft | 498 kts | 0° |
| 2026-05-08 16:47 | 53.04762 | -3.16192 | 24111 ft | 498 kts | 0° |
| 2026-05-08 16:47 | 53.08208 | -3.15914 | 24109 ft | 497 kts | 0° |
| 2026-05-08 16:47 | 53.11674 | -3.15632 | 24104 ft | 496 kts | 0° |
| 2026-05-08 16:47 | 53.15080 | -3.15358 | 24100 ft | 496 kts | 0° |
| 2026-05-08 16:48 | 53.18560 | -3.15079 | 24094 ft | 496 kts | 0° |
| 2026-05-08 16:48 | 53.21961 | -3.14804 | 24107 ft | 496 kts | 360° |
| 2026-05-08 16:48 | 53.25406 | -3.14531 | 24101 ft | 495 kts | 360° |
| 2026-05-08 16:48 | 53.28843 | -3.14267 | 24095 ft | 495 kts | 360° |
| 2026-05-08 16:49 | 53.32289 | -3.14008 | 24091 ft | 495 kts | 359° |
| 2026-05-08 16:49 | 53.35707 | -3.14318 | 24085 ft | 490 kts | 347° |
| 2026-05-08 16:49 | 53.38960 | -3.15870 | 24079 ft | 482 kts | 334° |
| 2026-05-08 16:49 | 53.41822 | -3.18483 | 24083 ft | 453 kts | 321° |
| 2026-05-08 16:50 | 53.44130 | -3.21806 | 24082 ft | 425 kts | 310° |
| 2026-05-08 16:50 | 53.46152 | -3.25266 | 23994 ft | 408 kts | 310° |
| 2026-05-08 16:50 | 53.48123 | -3.28629 | 23638 ft | 399 kts | 310° |
| 2026-05-08 16:50 | 53.50056 | -3.31934 | 23048 ft | 395 kts | 310° |
| 2026-05-08 16:51 | 53.51971 | -3.35214 | 22462 ft | 391 kts | 310° |
| 2026-05-08 16:51 | 53.53859 | -3.38453 | 21543 ft | 384 kts | 310° |
| 2026-05-08 16:51 | 53.55712 | -3.41641 | 20695 ft | 378 kts | 310° |
| 2026-05-08 16:51 | 53.57539 | -3.44819 | 20223 ft | 374 kts | 308° |
| 2026-05-08 16:52 | 53.59094 | -3.48265 | 19748 ft | 369 kts | 302° |
| 2026-05-08 16:52 | 53.60571 | -3.51787 | 19293 ft | 366 kts | 302° |
| 2026-05-08 16:52 | 53.62034 | -3.55282 | 18841 ft | 364 kts | 302° |
| 2026-05-08 16:52 | 53.63494 | -3.58761 | 18383 ft | 363 kts | 302° |
| 2026-05-08 16:53 | 53.66399 | -3.65647 | 17449 ft | 358 kts | 302° |
| 2026-05-08 16:53 | 53.67830 | -3.69056 | 16990 ft | 355 kts | 302° |
| 2026-05-08 16:53 | 53.69245 | -3.72436 | 16552 ft | 352 kts | 302° |
| 2026-05-08 16:54 | 53.70634 | -3.75765 | 16149 ft | 349 kts | 302° |
| 2026-05-08 16:54 | 53.72025 | -3.79102 | 15725 ft | 346 kts | 302° |
| 2026-05-08 16:54 | 53.73423 | -3.82460 | 15294 ft | 344 kts | 302° |
| 2026-05-08 16:54 | 53.74796 | -3.85756 | 14864 ft | 342 kts | 302° |
| 2026-05-08 16:55 | 53.76141 | -3.88993 | 14447 ft | 340 kts | 302° |
| 2026-05-08 16:55 | 53.77496 | -3.92266 | 14037 ft | 339 kts | 302° |
| 2026-05-08 16:55 | 53.78845 | -3.95534 | 13590 ft | 337 kts | 302° |
| 2026-05-08 16:55 | 53.80184 | -3.98782 | 13162 ft | 335 kts | 302° |
| 2026-05-08 16:56 | 53.81510 | -4.01996 | 12722 ft | 332 kts | 303° |
| 2026-05-08 16:56 | 53.82828 | -4.05182 | 12314 ft | 330 kts | 303° |
| 2026-05-08 16:56 | 53.84137 | -4.08358 | 11890 ft | 327 kts | 302° |
| 2026-05-08 16:56 | 53.85429 | -4.11505 | 11463 ft | 325 kts | 302° |
| 2026-05-08 16:57 | 53.86714 | -4.14647 | 11046 ft | 324 kts | 302° |
| 2026-05-08 16:57 | 53.87992 | -4.17771 | 10625 ft | 322 kts | 303° |
| 2026-05-08 16:57 | 53.89271 | -4.20891 | 10262 ft | 319 kts | 302° |
| 2026-05-08 16:57 | 53.90511 | -4.23921 | 10137 ft | 307 kts | 302° |
| 2026-05-08 16:58 | 53.91705 | -4.26838 | 9988 ft | 298 kts | 302° |
| 2026-05-08 16:58 | 53.92879 | -4.29709 | 9673 ft | 293 kts | 302° |
| 2026-05-08 16:58 | 53.94014 | -4.32587 | 9270 ft | 291 kts | 296° |
| 2026-05-08 16:58 | 53.94915 | -4.35635 | 8874 ft | 288 kts | 294° |
| 2026-05-08 16:59 | 53.95789 | -4.38646 | 8496 ft | 287 kts | 294° |
| 2026-05-08 16:59 | 53.96663 | -4.41696 | 8047 ft | 287 kts | 291° |
| 2026-05-08 16:59 | 53.97432 | -4.44842 | 7548 ft | 289 kts | 290° |
| 2026-05-08 16:59 | 53.98173 | -4.48031 | 7053 ft | 292 kts | 289° |
| 2026-05-08 17:00 | 53.98911 | -4.51251 | 6540 ft | 293 kts | 289° |
| 2026-05-08 17:00 | 53.99644 | -4.54484 | 6041 ft | 294 kts | 289° |
| 2026-05-08 17:00 | 54.00365 | -4.57683 | 5499 ft | 284 kts | 289° |
| 2026-05-08 17:00 | 54.01057 | -4.60764 | 4993 ft | 275 kts | 289° |
| 2026-05-08 17:01 | 54.01629 | -4.63797 | 4470 ft | 263 kts | 276° |
| 2026-05-08 17:01 | 54.01733 | -4.66838 | 4088 ft | 256 kts | 270° |
| 2026-05-08 17:01 | 54.01752 | -4.69860 | 3709 ft | 254 kts | 270° |
| 2026-05-08 17:01 | 54.01749 | -4.72861 | 3325 ft | 253 kts | 269° |
| 2026-05-08 17:02 | 54.01721 | -4.75831 | 2933 ft | 249 kts | 269° |
| 2026-05-08 17:02 | 54.01746 | -4.78709 | 2549 ft | 236 kts | 285° |
| 2026-05-08 17:02 | 54.02545 | -4.80980 | 2166 ft | 225 kts | 326° |
| 2026-05-08 17:02 | 54.03971 | -4.81681 | 2002 ft | 210 kts | 8° |
| 2026-05-08 17:03 | 54.05239 | -4.80795 | 2047 ft | 192 kts | 45° |
| 2026-05-08 17:03 | 54.05817 | -4.78801 | 1893 ft | 188 kts | 77° |
| 2026-05-08 17:03 | 54.06043 | -4.76753 | 1818 ft | 167 kts | 74° |
| 2026-05-08 17:03 | 54.06368 | -4.74977 | 1725 ft | 149 kts | 62° |
| 2026-05-08 17:04 | 54.06741 | -4.73390 | 1529 ft | 142 kts | 75° |
| 2026-05-08 17:04 | 54.06980 | -4.71796 | 1181 ft | 141 kts | 72° |
| 2026-05-08 17:04 | 54.07264 | -4.70219 | 881 ft | 137 kts | 67° |
| 2026-05-08 17:04 | 54.07519 | -4.68659 | 671 ft | 137 kts | 73° |
| 2026-05-08 17:05 | 54.07735 | -4.67091 | 513 ft | 135 kts | 77° |
| 2026-05-08 17:05 | 54.07937 | -4.65532 | 338 ft | 134 kts | 78° |
| 2026-05-08 17:05 | 54.08129 | -4.63965 | 139 ft | 135 kts | 79° |
| 2026-05-08 17:05 | 54.08317 | -4.62467 | 44 ft | 112 kts | 77° |
| 2026-05-08 17:06 | 54.08415 | -4.61678 | 43 ft | 24 kts | 78° |
| 2026-05-08 17:06 | 54.08438 | -4.61493 | 38 ft | 14 kts | 78° |
| 2026-05-08 17:06 | 54.08457 | -4.61432 | 40 ft | 4 kts | 38° |
| 2026-05-08 17:06 | 54.08476 | -4.61422 | 41 ft | 3 kts | 11° |
| 2026-05-08 17:07 | 54.08504 | -4.61434 | 42 ft | 5 kts | 333° |
| 2026-05-08 17:07 | 54.08531 | -4.61495 | 43 ft | 9 kts | 288° |
| 2026-05-08 17:07 | 54.08540 | -4.61621 | 42 ft | 11 kts | 276° |
| 2026-05-08 17:07 | 54.08548 | -4.61745 | 42 ft | 10 kts | 276° |
| 2026-05-08 17:08 | 54.08554 | -4.61847 | 43 ft | 7 kts | 272° |
| 2026-05-08 17:08 | 54.08549 | -4.61911 | 42 ft | 4 kts | 258° |
| 2026-05-08 17:08 | 54.08539 | -4.61994 | 46 ft | 11 kts | 258° |
| 2026-05-08 17:08 | 54.08519 | -4.62150 | 47 ft | 16 kts | 258° |
| 2026-05-08 17:09 | 54.08497 | -4.62334 | 51 ft | 13 kts | 258° |
| 2026-05-08 17:09 | 54.08476 | -4.62501 | 46 ft | 17 kts | 258° |
| 2026-05-08 17:09 | 54.08445 | -4.62740 | 42 ft | 22 kts | 258° |
| 2026-05-08 17:09 | 54.08424 | -4.62910 | 43 ft | 10 kts | 258° |
| 2026-05-08 17:10 | 54.08428 | -4.62976 | 43 ft | 5 kts | 311° |
| 2026-05-08 17:10 | 54.08467 | -4.62997 | 43 ft | 9 kts | 347° |
| 2026-05-08 17:10 | 54.08539 | -4.63024 | 46 ft | 11 kts | 347° |
| 2026-05-08 17:10 | 54.08601 | -4.63082 | 45 ft | 7 kts | 314° |
| 2026-05-08 17:11 | 54.08629 | -4.63132 | 45 ft | 3 kts | 313° |
| 2026-05-08 17:11 | 54.08633 | -4.63160 | 45 ft | 3 kts | 259° |
| 2026-05-08 17:11 | 54.08616 | -4.63191 | 43 ft | 3 kts | 224° |
| 2026-05-08 17:11 | 54.08605 | -4.63211 | 45 ft | 1 kts | 224° |
| 2026-05-08 17:12 | 54.08602 | -4.63215 | 45 ft | 0 kts | 224° |